createdAt,value
2017-12-26T00:00:30.878Z,0
2017-12-26T00:01:30.730Z,0
2017-12-26T00:02:31.101Z,0
2017-12-26T00:03:31.200Z,0
2017-12-26T00:04:31.964Z,0
2017-12-26T00:05:31.676Z,0
2017-12-26T00:06:32.301Z,0
2017-12-26T00:07:31.910Z,0
2017-12-26T00:08:32.478Z,0
2017-12-26T00:09:32.067Z,0
2017-12-26T00:10:32.932Z,0
2017-12-26T00:11:32.644Z,0
2017-12-26T00:12:33.263Z,0
2017-12-26T00:13:33.069Z,0
2017-12-26T00:14:32.935Z,0
2017-12-26T00:15:33.667Z,0
2017-12-26T00:16:33.411Z,0
2017-12-26T00:17:33.625Z,0
2017-12-26T00:18:33.678Z,0
2017-12-26T00:19:34.084Z,0
2017-12-26T00:20:34.234Z,0
2017-12-26T00:21:34.646Z,0
2017-12-26T00:22:34.308Z,0
2017-12-26T00:23:34.922Z,0
2017-12-26T00:24:35.255Z,0
2017-12-26T00:25:35.163Z,0
2017-12-26T00:26:35.010Z,0
2017-12-26T00:27:35.308Z,0
2017-12-26T00:28:35.573Z,0
2017-12-26T00:29:35.442Z,0
2017-12-26T00:30:35.620Z,0
2017-12-26T00:31:35.656Z,0
2017-12-26T00:32:35.762Z,0
2017-12-26T00:33:35.568Z,0
2017-12-26T00:34:35.342Z,0
2017-12-26T00:35:36.593Z,0
2017-12-26T00:36:36.049Z,0
2017-12-26T00:37:36.684Z,0
2017-12-26T00:38:36.728Z,0
2017-12-26T00:39:36.945Z,0
2017-12-26T00:40:36.840Z,0
2017-12-26T00:41:36.717Z,0
2017-12-26T00:42:37.708Z,0
2017-12-26T00:43:36.972Z,0
2017-12-26T00:44:37.672Z,0
2017-12-26T00:45:37.422Z,0
2017-12-26T00:46:37.478Z,0
2017-12-26T00:47:38.206Z,0
2017-12-26T00:48:38.036Z,0
2017-12-26T00:49:38.729Z,0
2017-12-26T00:50:38.695Z,0
2017-12-26T00:51:38.739Z,0
2017-12-26T00:52:39.449Z,0
2017-12-26T00:53:39.218Z,0
2017-12-26T00:54:38.607Z,0
2017-12-26T00:55:38.926Z,0
2017-12-26T00:56:39.347Z,0
2017-12-26T00:57:39.788Z,0
2017-12-26T00:58:39.904Z,0
2017-12-26T00:59:40.075Z,0
2017-12-26T01:00:40.405Z,0
2017-12-26T01:01:40.813Z,0
2017-12-26T01:02:40.819Z,0
2017-12-26T01:03:40.728Z,0
2017-12-26T01:04:41.289Z,0
2017-12-26T01:05:40.740Z,0
2017-12-26T01:06:40.842Z,0
2017-12-26T01:07:41.490Z,0
2017-12-26T01:08:41.520Z,0
2017-12-26T01:09:41.509Z,0
2017-12-26T01:10:41.581Z,0
2017-12-26T01:11:41.407Z,0
2017-12-26T01:12:41.780Z,0
2017-12-26T01:13:41.961Z,0
2017-12-26T01:14:42.330Z,0
2017-12-26T01:15:41.875Z,0
2017-12-26T01:16:42.052Z,0
2017-12-26T01:17:42.667Z,0
2017-12-26T01:18:42.508Z,0
2017-12-26T01:19:42.785Z,0
2017-12-26T01:20:43.412Z,0
2017-12-26T01:21:43.521Z,0
2017-12-26T01:22:43.555Z,0
2017-12-26T01:23:43.399Z,0
2017-12-26T01:24:43.886Z,0
2017-12-26T01:25:43.798Z,0
2017-12-26T01:26:44.406Z,0
2017-12-26T01:27:44.233Z,0
2017-12-26T01:28:44.511Z,0
2017-12-26T01:29:44.700Z,0
2017-12-26T01:30:44.894Z,0
2017-12-26T01:31:44.696Z,0
2017-12-26T01:32:45.101Z,0
2017-12-26T01:33:44.612Z,0
2017-12-26T01:34:45.308Z,0
2017-12-26T01:35:45.071Z,0
2017-12-26T01:36:46.032Z,0
2017-12-26T01:37:45.370Z,0
2017-12-26T01:38:45.734Z,0
2017-12-26T01:39:45.714Z,0
2017-12-26T01:40:45.868Z,0
2017-12-26T01:41:45.937Z,0
2017-12-26T01:42:45.837Z,0
2017-12-26T01:43:46.572Z,0
2017-12-26T01:44:46.786Z,0
2017-12-26T01:45:46.567Z,0
2017-12-26T01:46:46.317Z,0
2017-12-26T01:47:47.137Z,0
2017-12-26T01:48:46.815Z,0
2017-12-26T01:49:47.172Z,0
2017-12-26T01:50:47.544Z,0
2017-12-26T01:51:47.669Z,0
2017-12-26T01:52:48.349Z,0
2017-12-26T01:53:48.229Z,0
2017-12-26T01:54:48.825Z,0
2017-12-26T01:55:48.861Z,0
2017-12-26T01:56:48.874Z,0
2017-12-26T01:57:48.637Z,0
2017-12-26T01:58:48.824Z,0
2017-12-26T01:59:49.022Z,0
2017-12-26T02:00:49.021Z,0
2017-12-26T02:01:49.012Z,0
2017-12-26T02:02:49.552Z,0
2017-12-26T02:03:49.843Z,0
2017-12-26T02:04:49.737Z,0
2017-12-26T02:05:49.755Z,0
2017-12-26T02:06:49.925Z,0
2017-12-26T02:07:50.218Z,0
2017-12-26T02:08:50.018Z,0
2017-12-26T02:09:50.673Z,0
2017-12-26T02:10:50.458Z,0
2017-12-26T02:11:50.664Z,0
2017-12-26T02:12:51.233Z,0
2017-12-26T02:13:51.335Z,0
2017-12-26T02:14:51.310Z,0
2017-12-26T02:15:51.866Z,0
2017-12-26T02:16:51.770Z,0
2017-12-26T02:17:52.130Z,0
2017-12-26T02:18:52.800Z,0
2017-12-26T02:19:53.494Z,0
2017-12-26T02:20:52.931Z,0
2017-12-26T02:21:53.571Z,0
2017-12-26T02:22:52.821Z,0
2017-12-26T02:23:53.579Z,0
2017-12-26T02:24:53.629Z,0
2017-12-26T02:25:53.488Z,0
2017-12-26T02:26:53.909Z,0
2017-12-26T02:27:54.108Z,0
2017-12-26T02:28:54.519Z,0
2017-12-26T02:29:54.949Z,0
2017-12-26T02:30:54.805Z,0
2017-12-26T02:31:55.090Z,0
2017-12-26T02:32:54.670Z,0
2017-12-26T02:33:55.244Z,0
2017-12-26T02:34:55.631Z,0
2017-12-26T02:35:55.482Z,0
2017-12-26T02:36:56.011Z,0
2017-12-26T02:37:56.374Z,0
2017-12-26T02:38:56.503Z,0
2017-12-26T02:39:56.465Z,0
2017-12-26T02:40:57.129Z,0
2017-12-26T02:41:57.104Z,0
2017-12-26T02:42:57.098Z,0
2017-12-26T02:43:57.476Z,0
2017-12-26T02:44:57.682Z,0
2017-12-26T02:45:57.792Z,0
2017-12-26T02:46:58.197Z,0
2017-12-26T02:47:58.113Z,0
2017-12-26T02:48:58.336Z,0
2017-12-26T02:49:57.953Z,0
2017-12-26T02:50:58.208Z,0
2017-12-26T02:51:57.930Z,0
2017-12-26T02:52:58.369Z,0
2017-12-26T02:53:58.783Z,0
2017-12-26T02:54:59.231Z,0
2017-12-26T02:55:59.371Z,0
2017-12-26T02:56:59.364Z,0
2017-12-26T02:57:58.899Z,0
2017-12-26T02:58:59.655Z,0
2017-12-26T02:59:59.529Z,0
2017-12-26T03:00:59.391Z,0
2017-12-26T03:02:00.642Z,0
2017-12-26T03:02:59.406Z,0
2017-12-26T03:04:00.012Z,0
2017-12-26T03:05:00.810Z,0
2017-12-26T03:06:00.027Z,0
2017-12-26T03:06:59.655Z,0
2017-12-26T03:07:59.998Z,0
2017-12-26T03:09:00.464Z,0
2017-12-26T03:10:00.178Z,0
2017-12-26T03:11:00.195Z,0
2017-12-26T03:12:00.911Z,0
2017-12-26T03:13:01.132Z,0
2017-12-26T03:14:01.311Z,0
2017-12-26T03:15:01.524Z,0
2017-12-26T03:16:01.779Z,0
2017-12-26T03:17:01.791Z,0
2017-12-26T03:18:01.706Z,0
2017-12-26T03:19:01.303Z,0
2017-12-26T03:20:01.585Z,0
2017-12-26T03:21:02.695Z,0
2017-12-26T03:22:01.601Z,0
2017-12-26T03:23:01.943Z,0
2017-12-26T03:24:02.684Z,0
2017-12-26T03:25:02.523Z,0
2017-12-26T03:26:02.345Z,0
2017-12-26T03:27:02.594Z,0
2017-12-26T03:28:03.237Z,0
2017-12-26T03:29:02.639Z,0
2017-12-26T03:30:02.177Z,0
2017-12-26T03:31:02.444Z,0
2017-12-26T03:32:02.649Z,0
2017-12-26T03:33:02.788Z,0
2017-12-26T03:34:02.876Z,0
2017-12-26T03:35:03.422Z,0
2017-12-26T03:36:04.747Z,0
2017-12-26T03:37:03.582Z,0
2017-12-26T03:38:04.143Z,0
2017-12-26T03:39:04.790Z,0
2017-12-26T03:40:04.793Z,0
2017-12-26T03:41:04.663Z,0
2017-12-26T03:42:04.711Z,0
2017-12-26T03:43:04.025Z,0
2017-12-26T03:44:04.659Z,0
2017-12-26T03:45:05.229Z,0
2017-12-26T03:46:05.364Z,0
2017-12-26T03:47:05.048Z,0
2017-12-26T03:48:05.304Z,0
2017-12-26T03:49:06.011Z,0
2017-12-26T03:50:06.757Z,0
2017-12-26T03:51:05.869Z,0
2017-12-26T03:52:06.514Z,0
2017-12-26T03:53:05.522Z,0
2017-12-26T03:54:05.598Z,0
2017-12-26T03:55:05.653Z,0
2017-12-26T03:56:05.232Z,0
2017-12-26T03:57:04.859Z,0
2017-12-26T03:58:05.134Z,0
2017-12-26T03:59:05.744Z,0
2017-12-26T04:00:05.196Z,0
2017-12-26T04:01:05.908Z,0
2017-12-26T04:02:06.843Z,0
2017-12-26T04:03:06.417Z,0
2017-12-26T04:04:06.859Z,0
2017-12-26T04:05:06.779Z,0
2017-12-26T04:06:07.740Z,0
2017-12-26T04:07:06.785Z,0
2017-12-26T04:08:06.213Z,0
2017-12-26T04:09:06.331Z,0
2017-12-26T04:10:07.227Z,0
2017-12-26T04:11:06.296Z,0
2017-12-26T04:12:06.951Z,0
2017-12-26T04:13:07.301Z,0
2017-12-26T04:14:06.415Z,0
2017-12-26T04:15:07.056Z,0
2017-12-26T04:16:07.867Z,0
2017-12-26T04:17:07.888Z,0
2017-12-26T04:18:07.942Z,0
2017-12-26T04:19:07.297Z,0
2017-12-26T04:20:06.968Z,0
2017-12-26T04:21:07.476Z,0
2017-12-26T04:22:07.526Z,0
2017-12-26T04:23:07.465Z,0
2017-12-26T04:24:07.334Z,0
2017-12-26T04:25:07.591Z,0
2017-12-26T04:26:06.987Z,0
2017-12-26T04:27:07.440Z,0
2017-12-26T04:28:07.541Z,0
2017-12-26T04:29:07.040Z,0
2017-12-26T04:30:07.482Z,0
2017-12-26T04:31:07.785Z,0
2017-12-26T04:32:07.472Z,0
2017-12-26T04:33:07.664Z,0
2017-12-26T04:34:07.969Z,0
2017-12-26T04:35:08.371Z,0
2017-12-26T04:36:07.900Z,0
2017-12-26T04:37:08.167Z,0
2017-12-26T04:38:07.608Z,0
2017-12-26T04:39:08.221Z,0
2017-12-26T04:40:08.405Z,0
2017-12-26T04:41:08.726Z,0
2017-12-26T04:42:09.104Z,0
2017-12-26T04:43:08.482Z,0
2017-12-26T04:44:09.113Z,0
2017-12-26T04:45:08.735Z,0
2017-12-26T04:46:09.128Z,0
2017-12-26T04:47:09.041Z,0
2017-12-26T04:48:09.276Z,0
2017-12-26T04:49:09.779Z,0
2017-12-26T04:50:09.973Z,0
2017-12-26T04:51:10.492Z,0
2017-12-26T04:52:10.513Z,0
2017-12-26T04:53:10.884Z,0
2017-12-26T04:54:10.459Z,0
2017-12-26T04:55:10.701Z,0
2017-12-26T04:56:11.101Z,0
2017-12-26T04:57:11.304Z,0
2017-12-26T04:58:11.536Z,0
2017-12-26T04:59:11.726Z,0
2017-12-26T05:00:12.029Z,0
2017-12-26T05:01:12.408Z,0
2017-12-26T05:02:12.596Z,0
2017-12-26T05:03:13.287Z,0
2017-12-26T05:04:13.302Z,0
2017-12-26T05:05:13.073Z,0
2017-12-26T05:06:12.973Z,0
2017-12-26T05:07:13.727Z,0
2017-12-26T05:08:14.161Z,0
2017-12-26T05:09:14.579Z,0
2017-12-26T05:10:14.021Z,0
2017-12-26T05:11:14.594Z,0
2017-12-26T05:12:14.351Z,0
2017-12-26T05:13:14.272Z,0
2017-12-26T05:14:14.869Z,0
2017-12-26T05:15:15.016Z,0
2017-12-26T05:16:15.452Z,0
2017-12-26T05:17:15.897Z,0
2017-12-26T05:18:15.677Z,0
2017-12-26T05:19:15.620Z,0
2017-12-26T05:20:16.445Z,0
2017-12-26T05:21:16.628Z,0
2017-12-26T05:22:17.080Z,0
2017-12-26T05:23:16.807Z,0
2017-12-26T05:24:16.447Z,0
2017-12-26T05:25:17.536Z,0
2017-12-26T05:26:17.603Z,0
2017-12-26T05:27:17.903Z,0
2017-12-26T05:28:18.799Z,0
2017-12-26T05:29:18.732Z,0
2017-12-26T05:30:18.488Z,0
2017-12-26T05:31:19.148Z,0
2017-12-26T05:32:19.263Z,0
2017-12-26T05:33:19.705Z,0
2017-12-26T05:34:20.139Z,0
2017-12-26T05:35:20.136Z,0
2017-12-26T05:36:20.528Z,0
2017-12-26T05:37:20.945Z,0
2017-12-26T05:38:20.739Z,0
2017-12-26T05:39:20.940Z,0
2017-12-26T05:40:21.060Z,0
2017-12-26T05:41:21.089Z,0
2017-12-26T05:42:21.137Z,0
2017-12-26T05:43:21.444Z,0
2017-12-26T05:44:21.122Z,0
2017-12-26T05:45:21.183Z,0
2017-12-26T05:46:20.818Z,0
2017-12-26T05:47:22.465Z,0
2017-12-26T05:48:21.633Z,0
2017-12-26T05:49:21.677Z,0
2017-12-26T05:50:22.131Z,0
2017-12-26T05:51:22.057Z,0
2017-12-26T05:52:22.323Z,0
2017-12-26T05:53:22.729Z,0
2017-12-26T05:54:22.544Z,0
2017-12-26T05:55:22.335Z,0
2017-12-26T05:56:22.675Z,0
2017-12-26T05:57:22.312Z,0
2017-12-26T05:58:21.529Z,0
2017-12-26T05:59:22.458Z,0
2017-12-26T06:00:22.483Z,0
2017-12-26T06:01:22.332Z,0
2017-12-26T06:02:22.135Z,0
2017-12-26T06:03:22.031Z,0
2017-12-26T06:04:22.465Z,0
2017-12-26T06:05:22.490Z,0
2017-12-26T06:06:22.621Z,0
2017-12-26T06:07:23.286Z,0
2017-12-26T06:08:23.463Z,0
2017-12-26T06:09:23.483Z,0
2017-12-26T06:10:23.908Z,0
2017-12-26T06:11:23.667Z,0
2017-12-26T06:12:23.847Z,0
2017-12-26T06:13:24.366Z,0
2017-12-26T06:14:24.146Z,0
2017-12-26T06:15:24.461Z,0
2017-12-26T06:16:24.401Z,0
2017-12-26T06:17:24.931Z,0
2017-12-26T06:18:25.056Z,0
2017-12-26T06:19:25.247Z,0
2017-12-26T06:20:25.433Z,0
2017-12-26T06:21:25.426Z,0
2017-12-26T06:22:26.014Z,0
2017-12-26T06:23:26.168Z,0
2017-12-26T06:24:26.219Z,0
2017-12-26T06:25:26.727Z,0
2017-12-26T06:26:26.636Z,0
2017-12-26T06:27:26.603Z,0
2017-12-26T06:28:27.283Z,0
2017-12-26T06:29:27.120Z,0
2017-12-26T06:30:27.039Z,0
2017-12-26T06:31:27.543Z,0
2017-12-26T06:32:27.378Z,0
2017-12-26T06:33:27.974Z,0
2017-12-26T06:34:28.095Z,0
2017-12-26T06:35:28.108Z,0
2017-12-26T06:36:28.629Z,0
2017-12-26T06:37:28.466Z,0
2017-12-26T06:38:28.333Z,4
2017-12-26T06:39:29.042Z,4
2017-12-26T06:40:29.229Z,0
2017-12-26T06:41:29.644Z,0
2017-12-26T06:42:30.069Z,0
2017-12-26T06:43:30.357Z,4
2017-12-26T06:44:30.592Z,4
2017-12-26T06:45:30.779Z,4
2017-12-26T06:46:30.965Z,4
2017-12-26T06:47:31.003Z,4
2017-12-26T06:48:30.959Z,8
2017-12-26T06:49:30.460Z,8
2017-12-26T06:50:30.752Z,8
2017-12-26T06:51:31.198Z,8
2017-12-26T06:52:31.391Z,8
2017-12-26T06:53:31.549Z,8
2017-12-26T06:54:31.302Z,12
2017-12-26T06:55:31.550Z,12
2017-12-26T06:56:31.416Z,12
2017-12-26T06:57:32.312Z,16
2017-12-26T06:58:30.962Z,20
2017-12-26T06:59:31.208Z,24
2017-12-26T07:00:31.400Z,24
2017-12-26T07:01:31.608Z,32
2017-12-26T07:02:31.734Z,36
2017-12-26T07:03:32.025Z,36
2017-12-26T07:04:32.234Z,40
2017-12-26T07:05:32.591Z,44
2017-12-26T07:06:32.802Z,48
2017-12-26T07:07:32.966Z,52
2017-12-26T07:08:33.124Z,60
2017-12-26T07:09:32.540Z,64
2017-12-26T07:10:33.658Z,72
2017-12-26T07:11:33.316Z,76
2017-12-26T07:12:33.473Z,88
2017-12-26T07:13:33.211Z,92
2017-12-26T07:14:34.168Z,100
2017-12-26T07:15:34.399Z,108
2017-12-26T07:16:33.384Z,116
2017-12-26T07:17:32.828Z,128
2017-12-26T07:18:33.216Z,136
2017-12-26T07:19:33.361Z,148
2017-12-26T07:20:33.393Z,160
2017-12-26T07:21:33.402Z,168
2017-12-26T07:22:33.443Z,176
2017-12-26T07:23:33.210Z,184
2017-12-26T07:24:33.502Z,192
2017-12-26T07:25:34.033Z,208
2017-12-26T07:26:33.767Z,220
2017-12-26T07:27:34.520Z,232
2017-12-26T07:28:34.433Z,248
2017-12-26T07:29:34.435Z,260
2017-12-26T07:30:34.684Z,272
2017-12-26T07:31:34.740Z,288
2017-12-26T07:32:34.767Z,300
2017-12-26T07:33:34.725Z,308
2017-12-26T07:34:34.247Z,324
2017-12-26T07:35:34.694Z,340
2017-12-26T07:36:34.945Z,356
2017-12-26T07:37:34.830Z,364
2017-12-26T07:38:35.715Z,388
2017-12-26T07:39:35.260Z,408
2017-12-26T07:40:35.240Z,428
2017-12-26T07:41:34.493Z,432
2017-12-26T07:42:35.039Z,440
2017-12-26T07:43:35.330Z,456
2017-12-26T07:44:35.551Z,464
2017-12-26T07:45:35.719Z,476
2017-12-26T07:46:35.657Z,480
2017-12-26T07:47:36.092Z,488
2017-12-26T07:48:35.914Z,492
2017-12-26T07:49:36.756Z,500
2017-12-26T07:50:36.659Z,508
2017-12-26T07:51:37.414Z,516
2017-12-26T07:52:36.663Z,532
2017-12-26T07:53:36.942Z,548
2017-12-26T07:54:36.957Z,560
2017-12-26T07:55:37.311Z,592
2017-12-26T07:56:36.423Z,624
2017-12-26T07:57:38.561Z,660
2017-12-26T07:58:37.635Z,696
2017-12-26T07:59:38.538Z,728
2017-12-26T08:00:39.112Z,756
2017-12-26T08:01:39.259Z,776
2017-12-26T08:02:39.280Z,796
2017-12-26T08:03:38.924Z,816
2017-12-26T08:04:39.108Z,844
2017-12-26T08:05:39.471Z,872
2017-12-26T08:06:39.321Z,924
2017-12-26T08:07:40.945Z,944
2017-12-26T08:08:40.103Z,968
2017-12-26T08:09:39.977Z,1000
2017-12-26T08:10:39.924Z,1028
2017-12-26T08:11:39.922Z,1020
2017-12-26T08:12:40.772Z,1040
2017-12-26T08:13:40.209Z,1104
2017-12-26T08:14:40.935Z,1112
2017-12-26T08:15:40.845Z,1160
2017-12-26T08:16:40.808Z,1136
2017-12-26T08:17:41.464Z,1156
2017-12-26T08:18:41.683Z,1096
2017-12-26T08:19:42.105Z,1052
2017-12-26T08:20:42.432Z,1016
2017-12-26T08:21:42.097Z,996
2017-12-26T08:22:42.309Z,980
2017-12-26T08:23:42.521Z,976
2017-12-26T08:24:42.938Z,968
2017-12-26T08:25:43.262Z,960
2017-12-26T08:26:42.973Z,944
2017-12-26T08:27:43.128Z,944
2017-12-26T08:28:43.153Z,952
2017-12-26T08:29:43.174Z,960
2017-12-26T08:30:43.196Z,956
2017-12-26T08:31:43.120Z,948
2017-12-26T08:32:43.367Z,944
2017-12-26T08:33:43.740Z,964
2017-12-26T08:34:43.874Z,1012
2017-12-26T08:35:44.538Z,1048
2017-12-26T08:36:44.298Z,1044
2017-12-26T08:37:44.560Z,1052
2017-12-26T08:38:45.004Z,1088
2017-12-26T08:39:45.229Z,1080
2017-12-26T08:40:44.838Z,1084
2017-12-26T08:41:45.550Z,1092
2017-12-26T08:42:45.519Z,1096
2017-12-26T08:43:45.406Z,1104
2017-12-26T08:44:45.669Z,1108
2017-12-26T08:45:46.152Z,1152
2017-12-26T08:46:45.951Z,1208
2017-12-26T08:47:45.876Z,1256
2017-12-26T08:48:46.322Z,1284
2017-12-26T08:49:46.171Z,1300
2017-12-26T08:50:46.689Z,1304
2017-12-26T08:51:46.831Z,1312
2017-12-26T08:52:47.213Z,1328
2017-12-26T08:53:46.372Z,1348
2017-12-26T08:54:46.778Z,1356
2017-12-26T08:55:46.805Z,1384
2017-12-26T08:56:47.672Z,1392
2017-12-26T08:57:46.923Z,1408
2017-12-26T08:58:47.183Z,1416
2017-12-26T08:59:47.191Z,1432
2017-12-26T09:00:47.675Z,1400
2017-12-26T09:01:48.465Z,1380
2017-12-26T09:02:48.706Z,1424
2017-12-26T09:03:48.578Z,1428
2017-12-26T09:04:48.387Z,1492
2017-12-26T09:05:49.060Z,1600
2017-12-26T09:06:48.846Z,1752
2017-12-26T09:07:49.624Z,1872
2017-12-26T09:08:49.840Z,2068
2017-12-26T09:09:49.930Z,2240
2017-12-26T09:10:49.943Z,2440
2017-12-26T09:11:49.683Z,2620
2017-12-26T09:12:50.173Z,2620
2017-12-26T09:13:50.449Z,3156
2017-12-26T09:14:50.132Z,3512
2017-12-26T09:15:50.125Z,4180
2017-12-26T09:16:50.875Z,4092
2017-12-26T09:17:50.491Z,4076
2017-12-26T09:18:50.748Z,5216
2017-12-26T09:19:50.485Z,4528
2017-12-26T09:20:50.909Z,4356
2017-12-26T09:21:51.602Z,4676
2017-12-26T09:22:51.124Z,4432
2017-12-26T09:23:51.374Z,4668
2017-12-26T09:24:51.672Z,4144
2017-12-26T09:25:51.837Z,4512
2017-12-26T09:26:51.559Z,3928
2017-12-26T09:27:52.015Z,4652
2017-12-26T09:28:51.771Z,5896
2017-12-26T09:29:51.920Z,5392
2017-12-26T09:30:51.826Z,5972
2017-12-26T09:31:52.152Z,5592
2017-12-26T09:32:53.568Z,7228
2017-12-26T09:33:53.717Z,7760
2017-12-26T09:34:53.678Z,8564
2017-12-26T09:35:52.983Z,10640
2017-12-26T09:36:53.175Z,10404
2017-12-26T09:37:53.997Z,12516
2017-12-26T09:38:53.886Z,11604
2017-12-26T09:39:54.318Z,12428
2017-12-26T09:40:54.614Z,10292
2017-12-26T09:41:54.819Z,10084
2017-12-26T09:42:55.152Z,12236
2017-12-26T09:43:54.797Z,10372
2017-12-26T09:44:54.464Z,8760
2017-12-26T09:45:55.308Z,9096
2017-12-26T09:46:55.290Z,10288
2017-12-26T09:47:55.499Z,7352
2017-12-26T09:48:55.349Z,9180
2017-12-26T09:49:55.137Z,11472
2017-12-26T09:50:56.038Z,12028
2017-12-26T09:51:56.025Z,14556
2017-12-26T09:52:55.925Z,16128
2017-12-26T09:53:55.914Z,15584
2017-12-26T09:54:56.219Z,15904
2017-12-26T09:55:56.157Z,17312
2017-12-26T09:56:56.519Z,18688
2017-12-26T09:57:56.687Z,18528
2017-12-26T09:58:56.591Z,18464
2017-12-26T09:59:57.499Z,20480
2017-12-26T10:00:56.779Z,17952
2017-12-26T10:01:57.090Z,14436
2017-12-26T10:02:57.727Z,12524
2017-12-26T10:03:57.554Z,12360
2017-12-26T10:04:57.275Z,15840
2017-12-26T10:05:57.608Z,15000
2017-12-26T10:06:58.291Z,13716
2017-12-26T10:07:58.022Z,12408
2017-12-26T10:08:58.080Z,11748
2017-12-26T10:09:58.382Z,12124
2017-12-26T10:10:57.869Z,11892
2017-12-26T10:11:58.101Z,9872
2017-12-26T10:12:57.994Z,9520
2017-12-26T10:13:58.482Z,11788
2017-12-26T10:14:57.982Z,11452
2017-12-26T10:15:58.518Z,13072
2017-12-26T10:16:59.094Z,15968
2017-12-26T10:17:59.370Z,12988
2017-12-26T10:18:59.292Z,9280
2017-12-26T10:19:58.832Z,8828
2017-12-26T10:20:59.253Z,9896
2017-12-26T10:21:59.914Z,10416
2017-12-26T10:22:59.417Z,11920
2017-12-26T10:24:01.112Z,17696
2017-12-26T10:25:00.300Z,17312
2017-12-26T10:26:00.976Z,15584
2017-12-26T10:27:00.488Z,17568
2017-12-26T10:28:01.304Z,16448
2017-12-26T10:29:01.086Z,16000
2017-12-26T10:30:00.825Z,17600
2017-12-26T10:31:00.953Z,18816
2017-12-26T10:32:00.870Z,18432
2017-12-26T10:33:01.316Z,12728
2017-12-26T10:34:01.534Z,5840
2017-12-26T10:35:01.604Z,4412
2017-12-26T10:36:02.115Z,4152
2017-12-26T10:37:02.104Z,3972
2017-12-26T10:38:02.442Z,3940
2017-12-26T10:39:02.380Z,3944
2017-12-26T10:40:02.626Z,3960
2017-12-26T10:41:02.959Z,4068
2017-12-26T10:42:02.702Z,4364
2017-12-26T10:43:02.596Z,4464
2017-12-26T10:44:02.916Z,4480
2017-12-26T10:45:03.596Z,4556
2017-12-26T10:46:02.846Z,4748
2017-12-26T10:47:03.357Z,4800
2017-12-26T10:48:03.965Z,4688
2017-12-26T10:49:04.010Z,4552
2017-12-26T10:50:04.267Z,4440
2017-12-26T10:51:04.344Z,4344
2017-12-26T10:52:04.166Z,4232
2017-12-26T10:53:04.350Z,4184
2017-12-26T10:54:04.668Z,4152
2017-12-26T10:55:04.069Z,4100
2017-12-26T10:56:04.505Z,4028
2017-12-26T10:57:04.109Z,4060
2017-12-26T10:58:04.722Z,4116
2017-12-26T10:59:04.830Z,3976
2017-12-26T11:00:05.628Z,3848
2017-12-26T11:01:05.501Z,3816
2017-12-26T11:02:05.399Z,3744
2017-12-26T11:03:05.306Z,3680
2017-12-26T11:04:05.414Z,3656
2017-12-26T11:05:05.116Z,3596
2017-12-26T11:06:05.643Z,3656
2017-12-26T11:07:05.491Z,3640
2017-12-26T11:08:05.576Z,3624
2017-12-26T11:09:06.273Z,3528
2017-12-26T11:10:06.221Z,3392
2017-12-26T11:11:06.332Z,3272
2017-12-26T11:12:06.446Z,3240
2017-12-26T11:13:06.706Z,3192
2017-12-26T11:14:07.127Z,3164
2017-12-26T11:15:07.284Z,3132
2017-12-26T11:16:07.976Z,3088
2017-12-26T11:17:07.610Z,3048
2017-12-26T11:18:08.190Z,3044
2017-12-26T11:19:08.904Z,3012
2017-12-26T11:20:08.428Z,2980
2017-12-26T11:21:09.096Z,2940
2017-12-26T11:22:08.597Z,2900
2017-12-26T11:23:08.606Z,2860
2017-12-26T11:24:09.268Z,2824
2017-12-26T11:25:09.305Z,2792
2017-12-26T11:26:09.231Z,2764
2017-12-26T11:27:09.013Z,2736
2017-12-26T11:28:08.870Z,2688
2017-12-26T11:29:09.744Z,2660
2017-12-26T11:30:09.738Z,2628
2017-12-26T11:31:09.848Z,2624
2017-12-26T11:32:09.604Z,2616
2017-12-26T11:33:10.076Z,2580
2017-12-26T11:34:10.040Z,2564
2017-12-26T11:35:09.669Z,2564
2017-12-26T11:36:10.440Z,2540
2017-12-26T11:37:10.330Z,2532
2017-12-26T11:38:09.964Z,2512
2017-12-26T11:39:10.658Z,2536
2017-12-26T11:40:10.422Z,2528
2017-12-26T11:41:11.102Z,2476
2017-12-26T11:42:10.889Z,2444
2017-12-26T11:43:10.642Z,2440
2017-12-26T11:44:10.915Z,2404
2017-12-26T11:45:11.722Z,2420
2017-12-26T11:46:11.436Z,2428
2017-12-26T11:47:11.556Z,2436
2017-12-26T11:48:11.851Z,2400
2017-12-26T11:49:11.581Z,2376
2017-12-26T11:50:12.101Z,2388
2017-12-26T11:51:11.812Z,2460
2017-12-26T11:52:12.227Z,2444
2017-12-26T11:53:12.353Z,1904
2017-12-26T11:54:13.072Z,2156
2017-12-26T11:55:12.998Z,2880
2017-12-26T11:56:13.700Z,2984
2017-12-26T11:57:14.118Z,2892
2017-12-26T11:58:13.669Z,2664
2017-12-26T11:59:14.351Z,2300
2017-12-26T12:00:14.087Z,1968
2017-12-26T12:01:14.355Z,1964
2017-12-26T12:02:14.890Z,2252
2017-12-26T12:03:14.463Z,2452
2017-12-26T12:04:14.102Z,2716
2017-12-26T12:05:14.687Z,2640
2017-12-26T12:06:15.063Z,2500
2017-12-26T12:07:15.435Z,2136
2017-12-26T12:08:15.940Z,1948
2017-12-26T12:09:16.454Z,1828
2017-12-26T12:10:16.482Z,1796
2017-12-26T12:11:16.168Z,1864
2017-12-26T12:12:16.629Z,2044
2017-12-26T12:13:17.127Z,2204
2017-12-26T12:14:17.133Z,2288
2017-12-26T12:15:17.072Z,2284
2017-12-26T12:16:17.375Z,2292
2017-12-26T12:17:17.442Z,2232
2017-12-26T12:18:17.401Z,2148
2017-12-26T12:19:17.316Z,2080
2017-12-26T12:20:17.970Z,2000
2017-12-26T12:21:17.601Z,1956
2017-12-26T12:22:17.979Z,2032
2017-12-26T12:23:19.570Z,1904
2017-12-26T12:24:19.461Z,2108
2017-12-26T12:25:19.261Z,2068
2017-12-26T12:26:19.467Z,1868
2017-12-26T12:27:19.498Z,1680
2017-12-26T12:28:19.457Z,1528
2017-12-26T12:29:20.579Z,1396
2017-12-26T12:30:19.939Z,1344
2017-12-26T12:31:19.957Z,1452
2017-12-26T12:32:19.455Z,1560
2017-12-26T12:33:19.805Z,1552
2017-12-26T12:34:19.544Z,1524
2017-12-26T12:35:20.603Z,1500
2017-12-26T12:36:19.841Z,1448
2017-12-26T12:37:20.503Z,1360
2017-12-26T12:38:21.099Z,1264
2017-12-26T12:39:20.733Z,1112
2017-12-26T12:40:21.194Z,1060
2017-12-26T12:41:21.312Z,1092
2017-12-26T12:42:21.084Z,1128
2017-12-26T12:43:21.420Z,1160
2017-12-26T12:44:21.332Z,1088
2017-12-26T12:45:21.343Z,996
2017-12-26T12:46:21.104Z,980
2017-12-26T12:47:21.351Z,996
2017-12-26T12:48:21.691Z,1040
2017-12-26T12:49:22.296Z,940
2017-12-26T12:50:22.248Z,812
2017-12-26T12:51:22.478Z,856
2017-12-26T12:52:22.502Z,816
2017-12-26T12:53:22.964Z,760
2017-12-26T12:54:23.042Z,808
2017-12-26T12:55:23.297Z,828
2017-12-26T12:56:22.733Z,796
2017-12-26T12:57:23.080Z,732
2017-12-26T12:58:23.986Z,732
2017-12-26T12:59:24.117Z,888
2017-12-26T13:00:24.185Z,1080
2017-12-26T13:01:23.781Z,1416
2017-12-26T13:02:23.557Z,1764
2017-12-26T13:03:24.275Z,2244
2017-12-26T13:04:25.147Z,2356
2017-12-26T13:05:24.751Z,2288
2017-12-26T13:06:24.408Z,2076
2017-12-26T13:07:24.533Z,1856
2017-12-26T13:08:24.260Z,2068
2017-12-26T13:09:25.203Z,2200
2017-12-26T13:10:24.210Z,2232
2017-12-26T13:11:24.667Z,2248
2017-12-26T13:12:24.601Z,2024
2017-12-26T13:13:24.398Z,1812
2017-12-26T13:14:24.626Z,1520
2017-12-26T13:15:24.440Z,1104
2017-12-26T13:16:25.042Z,972
2017-12-26T13:17:25.026Z,1304
2017-12-26T13:18:25.048Z,1472
2017-12-26T13:19:25.420Z,1176
2017-12-26T13:20:24.920Z,1164
2017-12-26T13:21:26.013Z,1428
2017-12-26T13:22:25.260Z,1724
2017-12-26T13:23:25.632Z,1616
2017-12-26T13:24:25.657Z,1328
2017-12-26T13:25:26.374Z,916
2017-12-26T13:26:26.348Z,676
2017-12-26T13:27:26.390Z,472
2017-12-26T13:28:26.547Z,360
2017-12-26T13:29:26.144Z,332
2017-12-26T13:30:26.827Z,376
2017-12-26T13:31:26.271Z,392
2017-12-26T13:32:26.804Z,376
2017-12-26T13:33:26.537Z,392
2017-12-26T13:34:26.879Z,364
2017-12-26T13:35:26.630Z,332
2017-12-26T13:36:26.817Z,312
2017-12-26T13:37:27.261Z,304
2017-12-26T13:38:26.359Z,304
2017-12-26T13:39:27.182Z,296
2017-12-26T13:40:27.188Z,264
2017-12-26T13:41:27.224Z,272
2017-12-26T13:42:27.437Z,248
2017-12-26T13:43:28.040Z,196
2017-12-26T13:44:28.196Z,180
2017-12-26T13:45:28.410Z,196
2017-12-26T13:46:28.883Z,192
2017-12-26T13:47:28.854Z,176
2017-12-26T13:48:29.267Z,160
2017-12-26T13:49:30.164Z,144
2017-12-26T13:50:29.410Z,144
2017-12-26T13:51:30.146Z,136
2017-12-26T13:52:30.171Z,140
2017-12-26T13:53:30.690Z,128
2017-12-26T13:54:31.358Z,136
2017-12-26T13:55:30.699Z,144
2017-12-26T13:56:30.877Z,160
2017-12-26T13:57:31.184Z,188
2017-12-26T13:58:31.156Z,192
2017-12-26T13:59:30.913Z,188
2017-12-26T14:00:31.114Z,184
2017-12-26T14:01:31.264Z,164
2017-12-26T14:02:31.764Z,144
2017-12-26T14:03:32.464Z,116
2017-12-26T14:04:32.228Z,100
2017-12-26T14:05:32.534Z,88